Tomofujimaru — JL6701 — position and weather

sailwx.info

Track history (hours):
 
Tides and Currents Weather Stations Pressure Air Temp Water Temp Dewpoint Dewpoint Depression Visibility Wind Speed Wind Dir Waves Ship Positions

Tomofujimaru

Last reported at 2017-Oct-18 22:05 UTC. Time now 2017-Oct-19 01:38 UTC.
Position N 34°32' E 135°19'.

Length 104 m; draft 6.4 m.

Type: Tanker. MMSI: 431501737.

Date/timePositionNaut miles runAvg speedWind from/ knotsBaromVisibWave heightAir tempDewpointWater temp
2017-Oct-18 22:05N 34°32' E 135°19'0 0.0
2017-Oct-18 21:41N 34°32' E 135°19'0 0.0
2017-Oct-18 21:05N 34°32' E 135°19'0 0.2
2017-Oct-18 20:47N 34°32' E 135°19'0 0.2
2017-Oct-18 20:29N 34°32' E 135°19'0 0.0
2017-Oct-18 19:17N 34°32' E 135°19'0 0.0
2017-Oct-18 18:05N 34°32' E 135°19'0 0.0
2017-Oct-18 17:59N 34°32' E 135°19'0 0.1
2017-Oct-18 17:29N 34°32' E 135°19'0 0.0
2017-Oct-18 16:23N 34°32' E 135°19'0 0.0
2017-Oct-18 15:17N 34°32' E 135°19'0 0.0
2017-Oct-18 14:53N 34°32' E 135°19'0 0.0
2017-Oct-18 12:50N 34°32' E 135°19'3 8.7
2017-Oct-18 12:30N 34°33' E 135°22'3 0.2
2017-Oct-17 23:08N 34°32' E 135°25'0 0.6
2017-Oct-17 22:57N 34°32' E 135°25'3 7.2
2017-Oct-17 22:31N 34°33' E 135°21'1 2.7
2017-Oct-17 22:01N 34°32' E 135°19'0 0.0
2017-Oct-17 21:21N 34°32' E 135°19'0 0.0
2017-Oct-17 20:51N 34°32' E 135°19'0 0.0
2017-Oct-17 20:27N 34°32' E 135°19'0 0.0
2017-Oct-17 19:51N 34°32' E 135°19'0 0.0
2017-Oct-17 19:27N 34°32' E 135°19'0 0.0
2017-Oct-17 18:57N 34°32' E 135°19'0 0.0
2017-Oct-17 18:27N 34°32' E 135°19'0 0.0
2017-Oct-17 17:45N 34°32' E 135°19'0 0.0
2017-Oct-17 17:27N 34°32' E 135°19'0 0.0
2017-Oct-17 16:45N 34°32' E 135°19'0 0.1
2017-Oct-17 16:21N 34°32' E 135°19'0 0.0
2017-Oct-17 15:57N 34°32' E 135°19'0 0.0
2017-Oct-17 15:03N 34°32' E 135°19'0 0.1
2017-Oct-17 14:57N 34°32' E 135°19'0 0.0
2017-Oct-17 11:45N 34°32' E 135°19'0 0.0
2017-Oct-17 11:21N 34°32' E 135°19'0 0.0
2017-Oct-17 10:39N 34°32' E 135°19'0 0.0
2017-Oct-17 10:21N 34°32' E 135°19'0 0.0
2017-Oct-17 09:27N 34°32' E 135°19'0 0.0
2017-Oct-17 08:25N 34°32' E 135°19'4 9.1
2017-Oct-17 08:00N 34°34' E 135°15'612.0
2017-Oct-17 07:30N 34°37' E 135°09'1 1.7
2017-Oct-17 06:45N 34°39' E 135°08'0 0.0
2017-Oct-17 06:21N 34°39' E 135°08'0 0.0
2017-Oct-17 05:57N 34°39' E 135°08'0 0.0
2017-Oct-17 05:27N 34°39' E 135°08'0 0.0
2017-Oct-17 04:57N 34°39' E 135°08'0 0.0
2017-Oct-17 04:29N 34°39' E 135°08'1 1.8
2017-Oct-17 03:59N 34°38' E 135°08'0 0.0
2017-Oct-17 03:13N 34°38' E 135°08'0 0.1
2017-Oct-17 02:55N 34°38' E 135°08'0 0.1
2017-Oct-17 02:25N 34°38' E 135°08'0 0.1
2017-Oct-17 01:55N 34°38' E 135°08'0 0.0
2017-Oct-17 01:25N 34°38' E 135°08'0 0.0
2017-Oct-17 00:49N 34°38' E 135°08'0 0.0
2017-Oct-17 00:13N 34°38' E 135°08'0 0.0
2017-Oct-16 23:55N 34°38' E 135°08'0 0.0
2017-Oct-16 23:25N 34°38' E 135°08'1 1.7
2017-Oct-16 22:52N 34°39' E 135°08'0 0.1
2017-Oct-16 22:31N 34°38' E 135°08'1 1.3
2017-Oct-16 21:55N 34°38' E 135°08'0 0.0
2017-Oct-16 21:25N 34°38' E 135°08'0 0.0
2017-Oct-16 20:49N 34°38' E 135°08'0 0.0
2017-Oct-16 20:25N 34°38' E 135°08'0 0.0
2017-Oct-16 19:55N 34°38' E 135°08'0 0.0
2017-Oct-16 19:25N 34°38' E 135°08'0 0.0
2017-Oct-16 18:55N 34°38' E 135°08'0 0.0
2017-Oct-16 18:25N 34°38' E 135°08'0 0.0
2017-Oct-16 17:19N 34°38' E 135°08'0 0.0
2017-Oct-16 16:55N 34°38' E 135°08'0 0.1
2017-Oct-16 16:19N 34°38' E 135°08'0 0.1
2017-Oct-16 15:55N 34°38' E 135°08'0 0.1
2017-Oct-16 15:25N 34°38' E 135°08'0 0.0
2017-Oct-16 14:55N 34°38' E 135°08'0 0.0
2017-Oct-16 13:55N 34°38' E 135°08'0 0.1
2017-Oct-16 13:19N 34°38' E 135°08'0 0.1
2017-Oct-16 12:43N 34°38' E 135°08'0 0.0
2017-Oct-16 12:13N 34°38' E 135°08'0 0.0
2017-Oct-16 11:55N 34°38' E 135°08'0 0.0
2017-Oct-16 11:25N 34°38' E 135°08'1 3.4
2017-Oct-16 11:00N 34°36' E 135°08'612.7
2017-Oct-16 10:30N 34°30' E 135°05'713.5
2017-Oct-16 09:57N 34°23' E 135°03'713.4
2017-Oct-16 09:24N 34°16' E 134°59'512.8
2017-Oct-16 09:00N 34°12' E 135°03'611.7
2017-Oct-16 08:30N 34°08' E 135°07'0 0.1
2017-Oct-16 05:12N 34°07' E 135°07'0 0.9
2017-Oct-16 05:00N 34°07' E 135°08'1 2.0
2017-Oct-16 04:30N 34°08' E 135°07'0 0.0
2017-Oct-16 04:00N 34°08' E 135°07'0 0.0
2017-Oct-16 03:30N 34°08' E 135°07'0 0.0
2017-Oct-16 03:00N 34°08' E 135°07'0 0.0
2017-Oct-16 02:30N 34°08' E 135°07'0 0.0
2017-Oct-16 02:00N 34°08' E 135°07'0 0.0
2017-Oct-16 01:30N 34°08' E 135°07'0 0.0
2017-Oct-16 01:00N 34°08' E 135°07'0 0.0
2017-Oct-16 00:30N 34°08' E 135°07'0 0.0
2017-Oct-16 00:00N 34°08' E 135°07'0 0.0
2017-Oct-15 23:27N 34°08' E 135°07'0 0.0
2017-Oct-15 23:00N 34°08' E 135°07'0 0.0
2017-Oct-15 22:30N 34°08' E 135°07'0 0.0
2017-Oct-15 22:00N 34°08' E 135°07'0 0.0
2017-Oct-15 21:30N 34°08' E 135°07'0 0.0
2017-Oct-15 20:57N 34°08' E 135°07'0 0.0
2017-Oct-15 20:30N 34°08' E 135°07'0 0.0
2017-Oct-15 20:00N 34°08' E 135°07'0 0.0
2017-Oct-15 19:30N 34°08' E 135°07'2 3.5
2017-Oct-15 19:00N 34°07' E 135°05'7 0.1
2017-Oct-13 15:42N 34°01' E 135°02'312.8
2017-Oct-13 15:30N 34°03' E 135°03'510.2
2017-Oct-13 15:01N 34°08' E 135°06'1 0.1
2017-Oct-13 07:23N 34°07' E 135°07'0 0.1
2017-Oct-13 04:06N 34°07' E 135°08'0 0.4
2017-Oct-13 04:00N 34°07' E 135°08'4 8.6
2017-Oct-13 03:30N 34°05' E 135°03'32 0.6
2017-Oct-10 23:48N 34°31' E 135°24'1 0.0
2017-Oct-09 00:07N 34°31' E 135°24'0 0.7
2017-Oct-09 00:00N 34°31' E 135°24'3 6.7
2017-Oct-08 23:29N 34°32' E 135°20'1 1.4
2017-Oct-08 22:52N 34°32' E 135°19'0 0.0
2017-Oct-08 22:28N 34°32' E 135°19'  
Track history (hours):
 
Tides and Currents Weather Stations Pressure Air Temp Water Temp Dewpoint Dewpoint Depression Visibility Wind Speed Wind Dir Waves Ship Positions

Tomofujimaru

Last reported at 2017-Oct-18 22:05 UTC. Time now 2017-Oct-19 01:38 UTC.
Position N 34°32' E 135°19'.

Length 104 m; draft 6.4 m.

Type: Tanker. MMSI: 431501737.

Date/timePositionNaut miles runAvg speedWind from/ knotsBaromVisibWave heightAir tempDewpointWater temp
2017-Oct-18 22:05N 34°32' E 135°19'0 0.0
2017-Oct-18 21:41N 34°32' E 135°19'0 0.0
2017-Oct-18 21:05N 34°32' E 135°19'0 0.2
2017-Oct-18 20:47N 34°32' E 135°19'0 0.2
2017-Oct-18 20:29N 34°32' E 135°19'0 0.0
2017-Oct-18 19:17N 34°32' E 135°19'0 0.0
2017-Oct-18 18:05N 34°32' E 135°19'0 0.0
2017-Oct-18 17:59N 34°32' E 135°19'0 0.1
2017-Oct-18 17:29N 34°32' E 135°19'0 0.0
2017-Oct-18 16:23N 34°32' E 135°19'0 0.0
2017-Oct-18 15:17N 34°32' E 135°19'0 0.0
2017-Oct-18 14:53N 34°32' E 135°19'0 0.0
2017-Oct-18 12:50N 34°32' E 135°19'3 8.7
2017-Oct-18 12:30N 34°33' E 135°22'3 0.2
2017-Oct-17 23:08N 34°32' E 135°25'0 0.6
2017-Oct-17 22:57N 34°32' E 135°25'3 7.2
2017-Oct-17 22:31N 34°33' E 135°21'1 2.7
2017-Oct-17 22:01N 34°32' E 135°19'0 0.0
2017-Oct-17 21:21N 34°32' E 135°19'0 0.0
2017-Oct-17 20:51N 34°32' E 135°19'0 0.0
2017-Oct-17 20:27N 34°32' E 135°19'0 0.0
2017-Oct-17 19:51N 34°32' E 135°19'0 0.0
2017-Oct-17 19:27N 34°32' E 135°19'0 0.0
2017-Oct-17 18:57N 34°32' E 135°19'0 0.0
2017-Oct-17 18:27N 34°32' E 135°19'0 0.0
2017-Oct-17 17:45N 34°32' E 135°19'0 0.0
2017-Oct-17 17:27N 34°32' E 135°19'0 0.0
2017-Oct-17 16:45N 34°32' E 135°19'0 0.1
2017-Oct-17 16:21N 34°32' E 135°19'0 0.0
2017-Oct-17 15:57N 34°32' E 135°19'0 0.0
2017-Oct-17 15:03N 34°32' E 135°19'0 0.1
2017-Oct-17 14:57N 34°32' E 135°19'0 0.0
2017-Oct-17 11:45N 34°32' E 135°19'0 0.0
2017-Oct-17 11:21N 34°32' E 135°19'0 0.0
2017-Oct-17 10:39N 34°32' E 135°19'0 0.0
2017-Oct-17 10:21N 34°32' E 135°19'0 0.0
2017-Oct-17 09:27N 34°32' E 135°19'0 0.0
2017-Oct-17 08:25N 34°32' E 135°19'4 9.1
2017-Oct-17 08:00N 34°34' E 135°15'612.0
2017-Oct-17 07:30N 34°37' E 135°09'1 1.7
2017-Oct-17 06:45N 34°39' E 135°08'0 0.0
2017-Oct-17 06:21N 34°39' E 135°08'0 0.0
2017-Oct-17 05:57N 34°39' E 135°08'0 0.0
2017-Oct-17 05:27N 34°39' E 135°08'0 0.0
2017-Oct-17 04:57N 34°39' E 135°08'0 0.0
2017-Oct-17 04:29N 34°39' E 135°08'1 1.8
2017-Oct-17 03:59N 34°38' E 135°08'0 0.0
2017-Oct-17 03:13N 34°38' E 135°08'0 0.1
2017-Oct-17 02:55N 34°38' E 135°08'0 0.1
2017-Oct-17 02:25N 34°38' E 135°08'0 0.1
2017-Oct-17 01:55N 34°38' E 135°08'0 0.0
2017-Oct-17 01:25N 34°38' E 135°08'0 0.0
2017-Oct-17 00:49N 34°38' E 135°08'0 0.0
2017-Oct-17 00:13N 34°38' E 135°08'0 0.0
2017-Oct-16 23:55N 34°38' E 135°08'0 0.0
2017-Oct-16 23:25N 34°38' E 135°08'1 1.7
2017-Oct-16 22:52N 34°39' E 135°08'0 0.1
2017-Oct-16 22:31N 34°38' E 135°08'1 1.3
2017-Oct-16 21:55N 34°38' E 135°08'0 0.0
2017-Oct-16 21:25N 34°38' E 135°08'0 0.0
2017-Oct-16 20:49N 34°38' E 135°08'0 0.0
2017-Oct-16 20:25N 34°38' E 135°08'0 0.0
2017-Oct-16 19:55N 34°38' E 135°08'0 0.0
2017-Oct-16 19:25N 34°38' E 135°08'0 0.0
2017-Oct-16 18:55N 34°38' E 135°08'0 0.0
2017-Oct-16 18:25N 34°38' E 135°08'0 0.0
2017-Oct-16 17:19N 34°38' E 135°08'0 0.0
2017-Oct-16 16:55N 34°38' E 135°08'0 0.1
2017-Oct-16 16:19N 34°38' E 135°08'0 0.1
2017-Oct-16 15:55N 34°38' E 135°08'0 0.1
2017-Oct-16 15:25N 34°38' E 135°08'0 0.0
2017-Oct-16 14:55N 34°38' E 135°08'0 0.0
2017-Oct-16 13:55N 34°38' E 135°08'0 0.1
2017-Oct-16 13:19N 34°38' E 135°08'0 0.1
2017-Oct-16 12:43N 34°38' E 135°08'0 0.0
2017-Oct-16 12:13N 34°38' E 135°08'0 0.0
2017-Oct-16 11:55N 34°38' E 135°08'0 0.0
2017-Oct-16 11:25N 34°38' E 135°08'1 3.4
2017-Oct-16 11:00N 34°36' E 135°08'612.7
2017-Oct-16 10:30N 34°30' E 135°05'713.5
2017-Oct-16 09:57N 34°23' E 135°03'713.4
2017-Oct-16 09:24N 34°16' E 134°59'512.8
2017-Oct-16 09:00N 34°12' E 135°03'611.7
2017-Oct-16 08:30N 34°08' E 135°07'0 0.1
2017-Oct-16 05:12N 34°07' E 135°07'0 0.9
2017-Oct-16 05:00N 34°07' E 135°08'1 2.0
2017-Oct-16 04:30N 34°08' E 135°07'0 0.0
2017-Oct-16 04:00N 34°08' E 135°07'0 0.0
2017-Oct-16 03:30N 34°08' E 135°07'0 0.0
2017-Oct-16 03:00N 34°08' E 135°07'0 0.0
2017-Oct-16 02:30N 34°08' E 135°07'0 0.0
2017-Oct-16 02:00N 34°08' E 135°07'0 0.0
2017-Oct-16 01:30N 34°08' E 135°07'0 0.0
2017-Oct-16 01:00N 34°08' E 135°07'0 0.0
2017-Oct-16 00:30N 34°08' E 135°07'0 0.0
2017-Oct-16 00:00N 34°08' E 135°07'0 0.0
2017-Oct-15 23:27N 34°08' E 135°07'0 0.0
2017-Oct-15 23:00N 34°08' E 135°07'0 0.0
2017-Oct-15 22:30N 34°08' E 135°07'0 0.0
2017-Oct-15 22:00N 34°08' E 135°07'0 0.0
2017-Oct-15 21:30N 34°08' E 135°07'0 0.0
2017-Oct-15 20:57N 34°08' E 135°07'0 0.0
2017-Oct-15 20:30N 34°08' E 135°07'0 0.0
2017-Oct-15 20:00N 34°08' E 135°07'0 0.0
2017-Oct-15 19:30N 34°08' E 135°07'2 3.5
2017-Oct-15 19:00N 34°07' E 135°05'7 0.1
2017-Oct-13 15:42N 34°01' E 135°02'312.8
2017-Oct-13 15:30N 34°03' E 135°03'510.2
2017-Oct-13 15:01N 34°08' E 135°06'1 0.1
2017-Oct-13 07:23N 34°07' E 135°07'0 0.1
2017-Oct-13 04:06N 34°07' E 135°08'0 0.4
2017-Oct-13 04:00N 34°07' E 135°08'4 8.6
2017-Oct-13 03:30N 34°05' E 135°03'32 0.6
2017-Oct-10 23:48N 34°31' E 135°24'1 0.0
2017-Oct-09 00:07N 34°31' E 135°24'0 0.7
2017-Oct-09 00:00N 34°31' E 135°24'3 6.7
2017-Oct-08 23:29N 34°32' E 135°20'1 1.4
2017-Oct-08 22:52N 34°32' E 135°19'0 0.0
2017-Oct-08 22:28N 34°32' E 135°19'  

Dump ship's entire track history